• Join FlightAware (Why Join?)
  • Login
  • US Flag 
09:52PM EDT


 

Airport Tracker/Info


-or-


 

Live Flight TrackerFlight Track Log ✈ SWA1813 ✈ 27-Sep-2013 ✈ KBWI - KMHT

Flight Track Log - Related Links

Times and Time Zones

All times are in EDT time to prevent confusion due to time zone crossing. See the SWA1813 flight status page for this flight to view local times or setup timezone preferences in your user account.

Time Position Orientation Groundspeed Altitude Reporting Facility
EDT Latitude Longitude Course Direction KTS MPH feet Rate Location/Type
08:56PM 39.1050 -76.6133 119° Southeast 171 197 3,300  Level Washington Center
08:57PM 39.0764 -76.5461 119° Southeast 192 221 5,000 2,400 Climbing Washington Center
08:58PM 39.0728 -76.4497 93° East 220 253 8,200 2,820 Climbing Washington Center
08:59PM 39.0778 -76.3536 86° East 241 277 10,700 1,920 Climbing Washington Center
09:00PM 39.1056 -76.2336 73° East 290 334 12,100 1,740 Climbing Washington Center
09:01PM 39.1394 -76.1053 71° East 342 394 14,300 2,520 Climbing Washington Center
09:02PM 39.1711 -75.9717 73° East 365 420 17,100 2,280 Climbing Washington Center
09:03PM 39.2131 -75.8461 67° East 377 434 18,900 1,800 Climbing Washington Center
09:04PM 39.2925 -75.7472 44° Northeast 377 434 20,700 1,500 Climbing Washington Center
09:05PM 39.3761 -75.6481 43° Northeast 383 441 21,900 600 Climbing Washington Center
09:06PM 39.4553 -75.5406 46° Northeast 400 460 22,000 780 Climbing Washington Center
09:07PM 39.5364 -75.4381 44° Northeast 405 466 23,500 1,320 Climbing Washington Center
09:08PM 39.6175 -75.3331 45° Northeast 405 466 24,700 1,320 Climbing Washington Center
09:09PM 39.6983 -75.2194 47° Northeast 410 472 26,200 1,920 Climbing Washington Center
09:10PM 39.7875 -75.0919 48° Northeast 422 486 28,600 1,800 Climbing Washington Center
09:11PM 39.8939 -74.9997 34° Northeast 418 481 30,100 1,440 Climbing New York Center
09:12PM 40.0117 -74.9744 North 402 463 31,800 1,440 Climbing New York Center
09:13PM 40.1167 -74.9456 12° North 402 463 33,000 1,140 Climbing New York Center
09:14PM 40.2242 -74.9167 12° North 395 455 34,100 1,200 Climbing New York Center
09:15PM 40.3297 -74.8767 16° North 395 455 35,500 840 Climbing New York Center
09:16PM 40.4311 -74.8336 18° North 390 449 35,900 660 Climbing New York Center
09:17PM 40.5347 -74.7906 18° North 390 449 36,900 540 Climbing New York Center
09:18PM 40.6364 -74.7419 20° North 390 449 37,000  Climbing New York Center
09:19PM 40.7358 -74.7011 17° North 384 442 36,900  Descending New York Center
09:21PM 40.9331 -74.6106 19° North 375 432 37,000  Climbing Boston Center
09:22PM 41.0297 -74.5725 17° North 370 426 37,000  Level Boston Center
09:23PM 41.1328 -74.5264 19° North 370 426 37,000 -180 Level Boston Center
09:24PM 41.2358 -74.4800 19° North 382 440 36,700 -960 Descending Boston Center
09:25PM 41.3511 -74.4367 16° North 387 445 35,100 -1,500 Descending Boston Center
09:26PM 41.4353 -74.3950 20° North 370 426 33,700 -1,620 Descending Boston Center
09:27PM 41.5444 -74.3511 17° North 357 411 31,900 -1,680 Descending Boston Center
09:28PM 41.6269 -74.2675 37° Northeast 362 417 30,400 -1,200 Descending Boston Center
09:29PM 41.6933 -74.1556 52° Northeast 368 423 29,500 -900 Descending Boston Center
09:30PM 41.7661 -74.0350 51° Northeast 386 444 28,700 -840 Descending Boston Center
09:31PM 41.8322 -73.9197 52° Northeast 391 450 27,900 -900 Descending Boston Center
09:32PM 41.9089 -73.7958 50° Northeast 407 468 27,000 -1,020 Descending Boston Center
09:33PM 41.9831 -73.6689 52° Northeast 420 483 26,000 -1,920 Descending Boston Center
09:34PM 42.0594 -73.5475 50° Northeast 420 483 23,300 -1,560 Descending Boston Center
09:35PM 42.1356 -73.4172 52° Northeast 427 491 22,900 -660 Descending Boston Center
09:36PM 42.2011 -73.3061 51° Northeast 404 465 22,000 -960 Descending Boston Center
09:37PM 42.2728 -73.1892 50° Northeast 392 451 21,100 -1,020 Descending Boston Center
09:38PM 42.3403 -73.0719 52° Northeast 392 451 20,100 -960 Descending Boston Center
09:39PM 42.4014 -72.9631 53° Northeast 411 473 19,200 -600 Descending Boston Center
09:40PM 42.4853 -72.8286 50° Northeast 411 473 19,000 -120 Descending Boston Center
09:41PM 42.5356 -72.7133 59° Northeast 400 460 19,000  Level Boston Center
09:42PM 42.5836 -72.5811 64° Northeast 394 453 19,000 -720 Level Boston Center
09:43PM 42.6339 -72.4428 64° Northeast 394 453 17,600 -2,100 Descending Boston Center
09:44PM 42.6817 -72.3131 63° Northeast 388 447 14,800 -2,580 Descending Boston Center
09:45PM 42.7169 -72.2111 65° Northeast 379 436 12,500 -2,280 Descending Boston Center
09:46PM 42.7539 -72.0414 73° East 366 421 10,300 -1,800 Descending Boston Center
09:47PM 42.7764 -71.9308 74° East 312 359 9,000 -1,500 Descending Boston Center
09:48PM 42.7844 -71.8319 84° East 282 325 7,400 -1,920 Descending Boston Center
09:49PM 42.7919 -71.7300 84° East 260 299 5,200 -1,980 Descending Boston Center
09:50PM 42.7978 -71.6364 85° East 254 292 3,400 -1,620 Descending Boston Center
09:51PM 42.8033 -71.5403 85° East 254 292 2,000 -720 Descending Boston Center
09:52PM 42.8236 -71.4664 69° East 226 260 2,000  Level Boston Center
09:53PM 42.8353 -71.4011 76° East 180 207 2,000 -300 Level Boston Center
09:54PM 42.8728 -71.3975 North 132 152 1,400 -720 Descending Boston Center
09:55PM 42.9064 -71.4197 334° Northwest 126 145 600 -540 Descending Boston Center
09:56PM 42.9419 -71.4361 341° North 133 153 400 4,260 Descending Boston Center
09:57PM 42.9775 -71.4583 335° Northwest 133 153 9,000 4,260 Climbing Boston Center
09:58PM 43.0153 -71.4775 340° North 133 153 9,000  Level Boston Center
09:59PM 43.0447 -71.4942 338° Northwest 133 153 9,000  Level Boston Center
10:01PM 42.9328 -71.4358 163° South  Level Estimated
10:08PM 42.9328 -71.4358 163° South  Level Estimated
10:09PM 42.9328 -71.4358 163° South  Level Estimated
10:10PM 42.9328 -71.4358 163° South  Level Estimated
10:11PM 42.9328 -71.4358 163° South  Level Estimated
10:12PM 42.9328 -71.4358 163° South  Level Estimated
10:13PM 42.9328 -71.4358 163° South  Level Estimated